sensor_id;sensor_type;location;lat;lon;timestamp;P1;durP1;ratioP1;P2;durP2;ratioP2
75926;SDS011;64605;48.296;16.416;2022-11-11T00:01:36;21.52;;;16.77;;
75926;SDS011;64605;48.296;16.416;2022-11-11T00:04:02;23.05;;;16.00;;
75926;SDS011;64605;48.296;16.416;2022-11-11T00:06:27;22.50;;;17.40;;
75926;SDS011;64605;48.296;16.416;2022-11-11T00:08:53;20.48;;;15.52;;
75926;SDS011;64605;48.296;16.416;2022-11-11T00:11:19;21.85;;;15.73;;
75926;SDS011;64605;48.296;16.416;2022-11-11T00:13:44;20.40;;;15.90;;
75926;SDS011;64605;48.296;16.416;2022-11-11T00:18:37;25.67;;;17.52;;
75926;SDS011;64605;48.296;16.416;2022-11-11T00:21:23;27.63;;;17.67;;
75926;SDS011;64605;48.296;16.416;2022-11-11T00:24:29;25.73;;;18.27;;
75926;SDS011;64605;48.296;16.416;2022-11-11T00:27:13;22.30;;;16.40;;
75926;SDS011;64605;48.296;16.416;2022-11-11T00:29:44;22.25;;;16.95;;
75926;SDS011;64605;48.296;16.416;2022-11-11T00:32:10;24.33;;;15.93;;
75926;SDS011;64605;48.296;16.416;2022-11-11T00:34:49;23.52;;;15.77;;
75926;SDS011;64605;48.296;16.416;2022-11-11T00:37:33;26.38;;;16.58;;
75926;SDS011;64605;48.296;16.416;2022-11-11T00:39:59;25.52;;;15.30;;
75926;SDS011;64605;48.296;16.416;2022-11-11T00:42:25;29.40;;;17.52;;
75926;SDS011;64605;48.296;16.416;2022-11-11T00:44:51;21.52;;;16.40;;
75926;SDS011;64605;48.296;16.416;2022-11-11T00:47:16;22.42;;;15.57;;
75926;SDS011;64605;48.296;16.416;2022-11-11T00:50:01;21.20;;;15.40;;
75926;SDS011;64605;48.296;16.416;2022-11-11T00:52:46;18.98;;;14.85;;
75926;SDS011;64605;48.296;16.416;2022-11-11T00:55:13;29.75;;;17.15;;
75926;SDS011;64605;48.296;16.416;2022-11-11T00:57:39;19.05;;;14.45;;
75926;SDS011;64605;48.296;16.416;2022-11-11T01:00:05;20.35;;;14.98;;
75926;SDS011;64605;48.296;16.416;2022-11-11T01:02:31;19.45;;;15.00;;
75926;SDS011;64605;48.296;16.416;2022-11-11T01:04:57;20.15;;;15.70;;
75926;SDS011;64605;48.296;16.416;2022-11-11T01:07:23;21.90;;;14.30;;
75926;SDS011;64605;48.296;16.416;2022-11-11T01:09:48;20.30;;;15.48;;
75926;SDS011;64605;48.296;16.416;2022-11-11T01:12:14;17.08;;;14.15;;
75926;SDS011;64605;48.296;16.416;2022-11-11T01:14:40;19.35;;;14.80;;
75926;SDS011;64605;48.296;16.416;2022-11-11T01:17:06;22.73;;;15.98;;
75926;SDS011;64605;48.296;16.416;2022-11-11T01:19:33;26.38;;;17.15;;
75926;SDS011;64605;48.296;16.416;2022-11-11T01:21:59;22.88;;;17.35;;
75926;SDS011;64605;48.296;16.416;2022-11-11T01:24:25;25.38;;;16.60;;
75926;SDS011;64605;48.296;16.416;2022-11-11T01:26:51;21.50;;;16.88;;
75926;SDS011;64605;48.296;16.416;2022-11-11T01:29:17;26.10;;;18.42;;
75926;SDS011;64605;48.296;16.416;2022-11-11T01:31:43;23.85;;;19.30;;
75926;SDS011;64605;48.296;16.416;2022-11-11T01:34:08;21.10;;;16.98;;
75926;SDS011;64605;48.296;16.416;2022-11-11T01:36:34;23.35;;;17.38;;
75926;SDS011;64605;48.296;16.416;2022-11-11T01:38:59;23.45;;;17.45;;
75926;SDS011;64605;48.296;16.416;2022-11-11T01:41:26;25.83;;;17.95;;
75926;SDS011;64605;48.296;16.416;2022-11-11T01:44:39;25.08;;;18.30;;
75926;SDS011;64605;48.296;16.416;2022-11-11T01:47:03;21.75;;;16.63;;
75926;SDS011;64605;48.296;16.416;2022-11-11T01:54:45;19.17;;;15.93;;
75926;SDS011;64605;48.296;16.416;2022-11-11T01:57:21;25.42;;;16.52;;
75926;SDS011;64605;48.296;16.416;2022-11-11T01:59:52;24.50;;;16.15;;
75926;SDS011;64605;48.296;16.416;2022-11-11T02:02:26;23.17;;;17.58;;
75926;SDS011;64605;48.296;16.416;2022-11-11T02:05:03;20.70;;;16.42;;
75926;SDS011;64605;48.296;16.416;2022-11-11T02:07:51;27.55;;;17.48;;
75926;SDS011;64605;48.296;16.416;2022-11-11T02:10:23;21.35;;;16.75;;
75926;SDS011;64605;48.296;16.416;2022-11-11T02:12:50;22.48;;;16.10;;
75926;SDS011;64605;48.296;16.416;2022-11-11T02:15:35;28.70;;;19.90;;
75926;SDS011;64605;48.296;16.416;2022-11-11T02:18:01;21.88;;;16.20;;
75926;SDS011;64605;48.296;16.416;2022-11-11T02:20:29;22.77;;;17.35;;
75926;SDS011;64605;48.296;16.416;2022-11-11T02:23:12;29.23;;;18.67;;
75926;SDS011;64605;48.296;16.416;2022-11-11T02:25:51;24.92;;;17.75;;
75926;SDS011;64605;48.296;16.416;2022-11-11T02:28:19;29.55;;;20.83;;
75926;SDS011;64605;48.296;16.416;2022-11-11T02:30:47;29.52;;;19.38;;
75926;SDS011;64605;48.296;16.416;2022-11-11T02:33:12;30.10;;;20.58;;
75926;SDS011;64605;48.296;16.416;2022-11-11T02:35:48;21.60;;;17.15;;
75926;SDS011;64605;48.296;16.416;2022-11-11T02:38:20;25.45;;;19.05;;
75926;SDS011;64605;48.296;16.416;2022-11-11T02:40:47;37.85;;;22.95;;
75926;SDS011;64605;48.296;16.416;2022-11-11T02:43:31;35.67;;;23.95;;
75926;SDS011;64605;48.296;16.416;2022-11-11T02:45:58;29.10;;;22.20;;
75926;SDS011;64605;48.296;16.416;2022-11-11T02:48:26;29.48;;;21.77;;
75926;SDS011;64605;48.296;16.416;2022-11-11T02:50:52;23.80;;;18.88;;
75926;SDS011;64605;48.296;16.416;2022-11-11T02:53:18;29.67;;;20.80;;
75926;SDS011;64605;48.296;16.416;2022-11-11T02:55:44;27.85;;;18.88;;
75926;SDS011;64605;48.296;16.416;2022-11-11T02:58:10;29.77;;;20.25;;
75926;SDS011;64605;48.296;16.416;2022-11-11T03:00:36;29.45;;;21.17;;
75926;SDS011;64605;48.296;16.416;2022-11-11T03:03:01;41.65;;;24.77;;
75926;SDS011;64605;48.296;16.416;2022-11-11T03:05:27;32.67;;;21.83;;
75926;SDS011;64605;48.296;16.416;2022-11-11T03:07:52;33.78;;;22.67;;
75926;SDS011;64605;48.296;16.416;2022-11-11T03:10:18;30.17;;;22.27;;
75926;SDS011;64605;48.296;16.416;2022-11-11T03:12:44;29.90;;;19.58;;
75926;SDS011;64605;48.296;16.416;2022-11-11T03:15:09;33.13;;;22.02;;
75926;SDS011;64605;48.296;16.416;2022-11-11T03:17:35;30.05;;;19.45;;
75926;SDS011;64605;48.296;16.416;2022-11-11T03:20:13;27.38;;;18.33;;
75926;SDS011;64605;48.296;16.416;2022-11-11T03:22:59;30.33;;;19.48;;
75926;SDS011;64605;48.296;16.416;2022-11-11T03:25:25;25.38;;;18.52;;
75926;SDS011;64605;48.296;16.416;2022-11-11T03:28:17;28.30;;;18.65;;
75926;SDS011;64605;48.296;16.416;2022-11-11T03:30:45;26.77;;;18.40;;
75926;SDS011;64605;48.296;16.416;2022-11-11T03:33:15;24.50;;;18.15;;
75926;SDS011;64605;48.296;16.416;2022-11-11T03:35:41;29.38;;;21.40;;
75926;SDS011;64605;48.296;16.416;2022-11-11T03:38:09;34.45;;;21.85;;
75926;SDS011;64605;48.296;16.416;2022-11-11T03:40:49;28.40;;;20.00;;
75926;SDS011;64605;48.296;16.416;2022-11-11T03:43:17;25.63;;;18.23;;
75926;SDS011;64605;48.296;16.416;2022-11-11T03:45:44;26.45;;;19.52;;
75926;SDS011;64605;48.296;16.416;2022-11-11T03:48:10;33.40;;;23.98;;
75926;SDS011;64605;48.296;16.416;2022-11-11T03:50:37;31.85;;;23.05;;
75926;SDS011;64605;48.296;16.416;2022-11-11T03:53:03;35.05;;;24.63;;
75926;SDS011;64605;48.296;16.416;2022-11-11T03:55:29;33.10;;;22.90;;
75926;SDS011;64605;48.296;16.416;2022-11-11T03:57:55;34.08;;;22.17;;
75926;SDS011;64605;48.296;16.416;2022-11-11T04:00:22;30.27;;;21.77;;
75926;SDS011;64605;48.296;16.416;2022-11-11T04:02:49;40.05;;;24.75;;
75926;SDS011;64605;48.296;16.416;2022-11-11T04:05:34;34.28;;;23.25;;
75926;SDS011;64605;48.296;16.416;2022-11-11T04:08:18;31.77;;;23.17;;
75926;SDS011;64605;48.296;16.416;2022-11-11T04:11:10;36.85;;;25.95;;
75926;SDS011;64605;48.296;16.416;2022-11-11T04:13:39;33.05;;;24.35;;
75926;SDS011;64605;48.296;16.416;2022-11-11T04:16:27;29.42;;;21.65;;
75926;SDS011;64605;48.296;16.416;2022-11-11T04:18:53;36.42;;;23.63;;
75926;SDS011;64605;48.296;16.416;2022-11-11T04:21:37;30.35;;;22.05;;
75926;SDS011;64605;48.296;16.416;2022-11-11T04:24:26;33.60;;;23.90;;
75926;SDS011;64605;48.296;16.416;2022-11-11T04:27:14;28.83;;;21.75;;
75926;SDS011;64605;48.296;16.416;2022-11-11T04:29:41;36.33;;;22.92;;
75926;SDS011;64605;48.296;16.416;2022-11-11T04:32:11;39.30;;;25.80;;
75926;SDS011;64605;48.296;16.416;2022-11-11T04:35:03;35.45;;;24.88;;
75926;SDS011;64605;48.296;16.416;2022-11-11T04:37:34;37.28;;;25.08;;
75926;SDS011;64605;48.296;16.416;2022-11-11T04:40:08;40.40;;;25.58;;
75926;SDS011;64605;48.296;16.416;2022-11-11T04:42:52;36.65;;;25.10;;
75926;SDS011;64605;48.296;16.416;2022-11-11T04:45:18;35.28;;;24.42;;
75926;SDS011;64605;48.296;16.416;2022-11-11T04:50:31;33.08;;;23.80;;
75926;SDS011;64605;48.296;16.416;2022-11-11T04:52:57;32.72;;;21.48;;
75926;SDS011;64605;48.296;16.416;2022-11-11T04:55:23;33.10;;;23.33;;
75926;SDS011;64605;48.296;16.416;2022-11-11T04:58:08;37.70;;;23.33;;
75926;SDS011;64605;48.296;16.416;2022-11-11T05:00:34;33.65;;;23.58;;
75926;SDS011;64605;48.296;16.416;2022-11-11T05:03:00;30.15;;;22.25;;
75926;SDS011;64605;48.296;16.416;2022-11-11T05:05:53;33.17;;;23.05;;
75926;SDS011;64605;48.296;16.416;2022-11-11T05:08:46;34.30;;;23.92;;
75926;SDS011;64605;48.296;16.416;2022-11-11T05:11:34;37.50;;;25.55;;
75926;SDS011;64605;48.296;16.416;2022-11-11T05:14:01;44.67;;;29.20;;
75926;SDS011;64605;48.296;16.416;2022-11-11T05:16:47;28.65;;;20.65;;
75926;SDS011;64605;48.296;16.416;2022-11-11T05:19:33;31.83;;;21.00;;
75926;SDS011;64605;48.296;16.416;2022-11-11T05:22:18;36.65;;;23.73;;
75926;SDS011;64605;48.296;16.416;2022-11-11T05:24:45;31.42;;;24.33;;
75926;SDS011;64605;48.296;16.416;2022-11-11T05:27:29;36.65;;;23.77;;
75926;SDS011;64605;48.296;16.416;2022-11-11T05:29:55;34.15;;;23.10;;
75926;SDS011;64605;48.296;16.416;2022-11-11T05:32:21;38.70;;;26.83;;
75926;SDS011;64605;48.296;16.416;2022-11-11T05:34:48;42.85;;;28.27;;
75926;SDS011;64605;48.296;16.416;2022-11-11T05:37:14;41.78;;;26.92;;
75926;SDS011;64605;48.296;16.416;2022-11-11T05:39:40;38.55;;;25.05;;
75926;SDS011;64605;48.296;16.416;2022-11-11T05:42:06;66.47;;;26.33;;
75926;SDS011;64605;48.296;16.416;2022-11-11T05:44:32;43.97;;;22.38;;
75926;SDS011;64605;48.296;16.416;2022-11-11T05:46:58;52.83;;;22.80;;
75926;SDS011;64605;48.296;16.416;2022-11-11T05:49:23;60.28;;;24.33;;
75926;SDS011;64605;48.296;16.416;2022-11-11T05:51:49;69.00;;;26.73;;
75926;SDS011;64605;48.296;16.416;2022-11-11T05:54:17;29.98;;;21.20;;
75926;SDS011;64605;48.296;16.416;2022-11-11T05:56:43;33.97;;;23.90;;
75926;SDS011;64605;48.296;16.416;2022-11-11T05:59:09;31.15;;;21.88;;
75926;SDS011;64605;48.296;16.416;2022-11-11T06:01:35;36.05;;;22.83;;
75926;SDS011;64605;48.296;16.416;2022-11-11T06:04:02;42.38;;;26.00;;
75926;SDS011;64605;48.296;16.416;2022-11-11T06:06:29;37.15;;;25.42;;
75926;SDS011;64605;48.296;16.416;2022-11-11T06:08:55;60.08;;;24.50;;
75926;SDS011;64605;48.296;16.416;2022-11-11T06:11:21;48.50;;;23.15;;
75926;SDS011;64605;48.296;16.416;2022-11-11T06:13:47;107.63;;;23.95;;
75926;SDS011;64605;48.296;16.416;2022-11-11T06:16:13;113.45;;;28.55;;
75926;SDS011;64605;48.296;16.416;2022-11-11T06:18:39;187.13;;;29.00;;
75926;SDS011;64605;48.296;16.416;2022-11-11T06:21:05;321.98;;;35.20;;
75926;SDS011;64605;48.296;16.416;2022-11-11T06:23:30;176.73;;;32.15;;
75926;SDS011;64605;48.296;16.416;2022-11-11T06:25:56;138.10;;;31.10;;
75926;SDS011;64605;48.296;16.416;2022-11-11T06:28:41;146.55;;;30.13;;
75926;SDS011;64605;48.296;16.416;2022-11-11T06:31:15;102.03;;;27.63;;
75926;SDS011;64605;48.296;16.416;2022-11-11T06:33:42;124.88;;;29.65;;
75926;SDS011;64605;48.296;16.416;2022-11-11T06:36:09;145.48;;;27.58;;
75926;SDS011;64605;48.296;16.416;2022-11-11T06:38:37;82.55;;;24.33;;
75926;SDS011;64605;48.296;16.416;2022-11-11T06:41:03;116.03;;;24.85;;
75926;SDS011;64605;48.296;16.416;2022-11-11T06:43:29;124.72;;;29.33;;
75926;SDS011;64605;48.296;16.416;2022-11-11T06:45:55;148.40;;;29.83;;
75926;SDS011;64605;48.296;16.416;2022-11-11T06:48:22;102.13;;;22.90;;
75926;SDS011;64605;48.296;16.416;2022-11-11T06:50:49;161.55;;;29.95;;
75926;SDS011;64605;48.296;16.416;2022-11-11T06:53:16;120.72;;;25.15;;
75926;SDS011;64605;48.296;16.416;2022-11-11T06:55:43;158.30;;;25.27;;
75926;SDS011;64605;48.296;16.416;2022-11-11T06:58:13;81.28;;;23.40;;
75926;SDS011;64605;48.296;16.416;2022-11-11T07:03:09;71.57;;;21.48;;
75926;SDS011;64605;48.296;16.416;2022-11-11T07:05:36;87.65;;;23.17;;
75926;SDS011;64605;48.296;16.416;2022-11-11T07:08:03;55.30;;;20.00;;
75926;SDS011;64605;48.296;16.416;2022-11-11T07:10:30;73.28;;;21.75;;
75926;SDS011;64605;48.296;16.416;2022-11-11T07:12:57;64.97;;;20.20;;
75926;SDS011;64605;48.296;16.416;2022-11-11T07:15:23;51.95;;;20.52;;
75926;SDS011;64605;48.296;16.416;2022-11-11T07:17:49;55.85;;;18.90;;
75926;SDS011;64605;48.296;16.416;2022-11-11T07:20:15;25.83;;;15.98;;
75926;SDS011;64605;48.296;16.416;2022-11-11T07:22:41;25.98;;;16.13;;
75926;SDS011;64605;48.296;16.416;2022-11-11T07:25:06;18.88;;;15.35;;
75926;SDS011;64605;48.296;16.416;2022-11-11T07:27:37;17.33;;;15.45;;
75926;SDS011;64605;48.296;16.416;2022-11-11T07:30:04;18.10;;;14.43;;
75926;SDS011;64605;48.296;16.416;2022-11-11T07:32:30;18.02;;;14.13;;
75926;SDS011;64605;48.296;16.416;2022-11-11T07:34:56;13.80;;;12.35;;
75926;SDS011;64605;48.296;16.416;2022-11-11T07:37:22;13.88;;;12.25;;
75926;SDS011;64605;48.296;16.416;2022-11-11T07:39:48;16.60;;;12.60;;
75926;SDS011;64605;48.296;16.416;2022-11-11T07:42:14;17.98;;;11.43;;
75926;SDS011;64605;48.296;16.416;2022-11-11T07:44:39;13.75;;;11.88;;
75926;SDS011;64605;48.296;16.416;2022-11-11T07:47:05;12.48;;;11.18;;
75926;SDS011;64605;48.296;16.416;2022-11-11T07:49:31;12.98;;;11.45;;
75926;SDS011;64605;48.296;16.416;2022-11-11T07:51:56;14.00;;;10.52;;
75926;SDS011;64605;48.296;16.416;2022-11-11T07:54:22;11.05;;;9.85;;
75926;SDS011;64605;48.296;16.416;2022-11-11T07:56:48;10.95;;;9.85;;
75926;SDS011;64605;48.296;16.416;2022-11-11T07:59:13;9.95;;;8.90;;
75926;SDS011;64605;48.296;16.416;2022-11-11T08:01:39;10.43;;;9.43;;
75926;SDS011;64605;48.296;16.416;2022-11-11T08:04:05;10.68;;;8.68;;
75926;SDS011;64605;48.296;16.416;2022-11-11T08:06:30;10.48;;;8.88;;
75926;SDS011;64605;48.296;16.416;2022-11-11T08:08:56;11.13;;;9.43;;
75926;SDS011;64605;48.296;16.416;2022-11-11T08:11:21;13.50;;;8.90;;
75926;SDS011;64605;48.296;16.416;2022-11-11T08:14:06;15.45;;;8.95;;
75926;SDS011;64605;48.296;16.416;2022-11-11T08:16:32;13.68;;;8.93;;
75926;SDS011;64605;48.296;16.416;2022-11-11T08:18:58;10.77;;;8.75;;
75926;SDS011;64605;48.296;16.416;2022-11-11T08:21:24;9.82;;;8.82;;
75926;SDS011;64605;48.296;16.416;2022-11-11T08:23:50;10.10;;;8.68;;
75926;SDS011;64605;48.296;16.416;2022-11-11T08:26:16;10.40;;;8.52;;
75926;SDS011;64605;48.296;16.416;2022-11-11T08:28:42;11.98;;;9.18;;
75926;SDS011;64605;48.296;16.416;2022-11-11T08:31:08;10.48;;;9.20;;
75926;SDS011;64605;48.296;16.416;2022-11-11T08:33:34;10.05;;;8.25;;
75926;SDS011;64605;48.296;16.416;2022-11-11T08:36:00;11.13;;;8.93;;
75926;SDS011;64605;48.296;16.416;2022-11-11T08:38:26;10.05;;;8.52;;
75926;SDS011;64605;48.296;16.416;2022-11-11T08:40:52;12.48;;;10.27;;
75926;SDS011;64605;48.296;16.416;2022-11-11T08:43:18;11.30;;;9.63;;
75926;SDS011;64605;48.296;16.416;2022-11-11T08:45:46;12.95;;;10.30;;
75926;SDS011;64605;48.296;16.416;2022-11-11T08:48:12;9.68;;;8.77;;
75926;SDS011;64605;48.296;16.416;2022-11-11T08:50:38;9.93;;;8.93;;
75926;SDS011;64605;48.296;16.416;2022-11-11T08:53:05;9.20;;;8.18;;
75926;SDS011;64605;48.296;16.416;2022-11-11T08:55:32;9.00;;;8.10;;
75926;SDS011;64605;48.296;16.416;2022-11-11T08:57:59;11.43;;;8.48;;
75926;SDS011;64605;48.296;16.416;2022-11-11T09:00:26;10.45;;;7.95;;
75926;SDS011;64605;48.296;16.416;2022-11-11T09:02:52;8.57;;;7.65;;
75926;SDS011;64605;48.296;16.416;2022-11-11T09:05:18;9.30;;;7.68;;
75926;SDS011;64605;48.296;16.416;2022-11-11T09:07:43;9.75;;;8.60;;
75926;SDS011;64605;48.296;16.416;2022-11-11T09:10:09;8.45;;;7.65;;
75926;SDS011;64605;48.296;16.416;2022-11-11T09:12:35;8.25;;;7.45;;
75926;SDS011;64605;48.296;16.416;2022-11-11T09:15:00;8.77;;;7.63;;
75926;SDS011;64605;48.296;16.416;2022-11-11T09:17:26;8.45;;;7.65;;
75926;SDS011;64605;48.296;16.416;2022-11-11T09:19:52;8.63;;;7.80;;
75926;SDS011;64605;48.296;16.416;2022-11-11T09:22:17;8.30;;;7.60;;
75926;SDS011;64605;48.296;16.416;2022-11-11T09:24:43;8.98;;;7.72;;
75926;SDS011;64605;48.296;16.416;2022-11-11T09:27:09;9.57;;;7.70;;
75926;SDS011;64605;48.296;16.416;2022-11-11T09:29:35;8.60;;;7.75;;
75926;SDS011;64605;48.296;16.416;2022-11-11T09:32:01;10.40;;;7.47;;
75926;SDS011;64605;48.296;16.416;2022-11-11T09:34:27;8.80;;;7.90;;
75926;SDS011;64605;48.296;16.416;2022-11-11T09:36:53;9.40;;;8.00;;
75926;SDS011;64605;48.296;16.416;2022-11-11T09:39:19;9.05;;;7.40;;
75926;SDS011;64605;48.296;16.416;2022-11-11T09:47:56;9.75;;;8.40;;
75926;SDS011;64605;48.296;16.416;2022-11-11T09:50:23;8.95;;;8.05;;
75926;SDS011;64605;48.296;16.416;2022-11-11T09:58:05;8.85;;;7.82;;
75926;SDS011;64605;48.296;16.416;2022-11-11T10:00:41;8.68;;;7.70;;
75926;SDS011;64605;48.296;16.416;2022-11-11T10:05:39;8.07;;;7.38;;
75926;SDS011;64605;48.296;16.416;2022-11-11T10:08:22;10.95;;;7.97;;
75926;SDS011;64605;48.296;16.416;2022-11-11T10:10:51;9.27;;;8.35;;
75926;SDS011;64605;48.296;16.416;2022-11-11T10:15:52;10.32;;;8.35;;
75926;SDS011;64605;48.296;16.416;2022-11-11T10:21:15;9.20;;;7.95;;
75926;SDS011;64605;48.296;16.416;2022-11-11T10:23:47;9.70;;;8.27;;
75926;SDS011;64605;48.296;16.416;2022-11-11T10:26:18;9.52;;;8.60;;
75926;SDS011;64605;48.296;16.416;2022-11-11T10:28:45;9.63;;;8.63;;
75926;SDS011;64605;48.296;16.416;2022-11-11T10:31:18;10.30;;;8.68;;
75926;SDS011;64605;48.296;16.416;2022-11-11T10:34:02;8.95;;;8.05;;
75926;SDS011;64605;48.296;16.416;2022-11-11T10:36:33;8.68;;;7.88;;
75926;SDS011;64605;48.296;16.416;2022-11-11T10:39:10;7.95;;;7.15;;
75926;SDS011;64605;48.296;16.416;2022-11-11T10:41:51;9.77;;;7.67;;
75926;SDS011;64605;48.296;16.416;2022-11-11T10:44:17;9.48;;;7.32;;
75926;SDS011;64605;48.296;16.416;2022-11-11T10:49:55;10.48;;;7.68;;
75926;SDS011;64605;48.296;16.416;2022-11-11T10:52:43;9.82;;;6.90;;
75926;SDS011;64605;48.296;16.416;2022-11-11T10:55:44;8.38;;;6.40;;
75926;SDS011;64605;48.296;16.416;2022-11-11T11:00:45;7.93;;;7.10;;
75926;SDS011;64605;48.296;16.416;2022-11-11T11:03:15;8.13;;;7.35;;
75926;SDS011;64605;48.296;16.416;2022-11-11T11:06:08;7.97;;;6.95;;
75926;SDS011;64605;48.296;16.416;2022-11-11T11:09:05;8.05;;;7.22;;
75926;SDS011;64605;48.296;16.416;2022-11-11T11:11:39;7.55;;;6.90;;
75926;SDS011;64605;48.296;16.416;2022-11-11T11:14:18;8.10;;;7.30;;
75926;SDS011;64605;48.296;16.416;2022-11-11T11:16:52;8.93;;;7.32;;
75926;SDS011;64605;48.296;16.416;2022-11-11T11:19:20;8.70;;;7.30;;
75926;SDS011;64605;48.296;16.416;2022-11-11T11:21:51;9.98;;;7.30;;
75926;SDS011;64605;48.296;16.416;2022-11-11T11:26:59;8.18;;;6.80;;
75926;SDS011;64605;48.296;16.416;2022-11-11T11:29:27;10.82;;;6.75;;
75926;SDS011;64605;48.296;16.416;2022-11-11T11:37:10;9.88;;;7.35;;
75926;SDS011;64605;48.296;16.416;2022-11-11T11:39:37;11.32;;;8.25;;
75926;SDS011;64605;48.296;16.416;2022-11-11T11:42:04;14.70;;;8.07;;
75926;SDS011;64605;48.296;16.416;2022-11-11T11:44:31;9.25;;;7.75;;
75926;SDS011;64605;48.296;16.416;2022-11-11T11:47:08;11.38;;;8.40;;
75926;SDS011;64605;48.296;16.416;2022-11-11T11:52:40;10.10;;;7.35;;
75926;SDS011;64605;48.296;16.416;2022-11-11T11:55:17;12.95;;;9.85;;
75926;SDS011;64605;48.296;16.416;2022-11-11T12:01:03;11.23;;;7.45;;
75926;SDS011;64605;48.296;16.416;2022-11-11T12:03:49;10.93;;;8.38;;
75926;SDS011;64605;48.296;16.416;2022-11-11T12:09:11;9.07;;;7.35;;
75926;SDS011;64605;48.296;16.416;2022-11-11T12:11:50;9.27;;;8.10;;
75926;SDS011;64605;48.296;16.416;2022-11-11T12:14:48;8.55;;;7.30;;
75926;SDS011;64605;48.296;16.416;2022-11-11T12:25:46;10.82;;;7.68;;
75926;SDS011;64605;48.296;16.416;2022-11-11T12:45:29;9.15;;;7.43;;
75926;SDS011;64605;48.296;16.416;2022-11-11T12:56:33;11.90;;;8.80;;
75926;SDS011;64605;48.296;16.416;2022-11-11T12:59:10;13.15;;;8.40;;
75926;SDS011;64605;48.296;16.416;2022-11-11T13:04:29;9.15;;;8.07;;
75926;SDS011;64605;48.296;16.416;2022-11-11T13:10:07;10.07;;;7.50;;
75926;SDS011;64605;48.296;16.416;2022-11-11T13:12:48;14.43;;;8.85;;
75926;SDS011;64605;48.296;16.416;2022-11-11T13:15:27;9.75;;;8.45;;
75926;SDS011;64605;48.296;16.416;2022-11-11T13:17:53;15.30;;;8.85;;
75926;SDS011;64605;48.296;16.416;2022-11-11T13:23:14;11.43;;;7.90;;
75926;SDS011;64605;48.296;16.416;2022-11-11T13:25:44;9.60;;;8.45;;
75926;SDS011;64605;48.296;16.416;2022-11-11T13:28:20;9.70;;;8.55;;
75926;SDS011;64605;48.296;16.416;2022-11-11T13:33:49;12.65;;;8.35;;
75926;SDS011;64605;48.296;16.416;2022-11-11T13:36:19;10.50;;;8.38;;
75926;SDS011;64605;48.296;16.416;2022-11-11T13:38:49;9.57;;;8.50;;
75926;SDS011;64605;48.296;16.416;2022-11-11T13:41:22;11.32;;;8.93;;
75926;SDS011;64605;48.296;16.416;2022-11-11T13:43:52;10.93;;;8.75;;
75926;SDS011;64605;48.296;16.416;2022-11-11T13:49:02;21.60;;;15.07;;
75926;SDS011;64605;48.296;16.416;2022-11-11T13:51:37;24.02;;;15.32;;
75926;SDS011;64605;48.296;16.416;2022-11-11T13:56:45;19.80;;;17.23;;
75926;SDS011;64605;48.296;16.416;2022-11-11T14:12:42;23.60;;;17.65;;
75926;SDS011;64605;48.296;16.416;2022-11-11T14:15:43;23.00;;;16.17;;
75926;SDS011;64605;48.296;16.416;2022-11-11T14:20:41;23.63;;;18.70;;
75926;SDS011;64605;48.296;16.416;2022-11-11T14:25:39;22.63;;;16.70;;
75926;SDS011;64605;48.296;16.416;2022-11-11T14:28:18;23.35;;;17.40;;
75926;SDS011;64605;48.296;16.416;2022-11-11T14:30:50;23.80;;;17.52;;
75926;SDS011;64605;48.296;16.416;2022-11-11T14:33:50;20.08;;;16.75;;
75926;SDS011;64605;48.296;16.416;2022-11-11T14:36:18;21.42;;;17.98;;
75926;SDS011;64605;48.296;16.416;2022-11-11T14:41:40;20.80;;;17.00;;
75926;SDS011;64605;48.296;16.416;2022-11-11T14:52:27;25.83;;;18.67;;
75926;SDS011;64605;48.296;16.416;2022-11-11T14:57:34;23.80;;;17.65;;
75926;SDS011;64605;48.296;16.416;2022-11-11T15:00:10;21.85;;;17.40;;
75926;SDS011;64605;48.296;16.416;2022-11-11T15:02:46;25.38;;;18.80;;
75926;SDS011;64605;48.296;16.416;2022-11-11T15:05:17;23.38;;;18.50;;
75926;SDS011;64605;48.296;16.416;2022-11-11T15:08:00;21.50;;;17.77;;
75926;SDS011;64605;48.296;16.416;2022-11-11T15:16:16;24.27;;;16.95;;
75926;SDS011;64605;48.296;16.416;2022-11-11T15:30:08;18.85;;;15.32;;
75926;SDS011;64605;48.296;16.416;2022-11-11T15:38:08;22.98;;;15.98;;
75926;SDS011;64605;48.296;16.416;2022-11-11T15:40:44;27.52;;;18.25;;
75926;SDS011;64605;48.296;16.416;2022-11-11T15:43:16;26.75;;;17.10;;
75926;SDS011;64605;48.296;16.416;2022-11-11T15:45:44;28.73;;;18.20;;
75926;SDS011;64605;48.296;16.416;2022-11-11T15:48:20;33.50;;;21.73;;
75926;SDS011;64605;48.296;16.416;2022-11-11T15:50:51;35.63;;;23.15;;
75926;SDS011;64605;48.296;16.416;2022-11-11T15:53:24;38.30;;;24.05;;
75926;SDS011;64605;48.296;16.416;2022-11-11T15:55:56;39.20;;;24.08;;
75926;SDS011;64605;48.296;16.416;2022-11-11T15:58:28;31.20;;;21.38;;
75926;SDS011;64605;48.296;16.416;2022-11-11T16:00:56;30.10;;;20.55;;
75926;SDS011;64605;48.296;16.416;2022-11-11T16:03:32;35.58;;;22.38;;
75926;SDS011;64605;48.296;16.416;2022-11-11T16:08:40;29.35;;;19.17;;
75926;SDS011;64605;48.296;16.416;2022-11-11T16:11:08;27.30;;;19.35;;
75926;SDS011;64605;48.296;16.416;2022-11-11T16:13:38;27.35;;;19.83;;
75926;SDS011;64605;48.296;16.416;2022-11-11T16:16:12;39.60;;;22.75;;
75926;SDS011;64605;48.296;16.416;2022-11-11T16:18:53;35.00;;;23.05;;
75926;SDS011;64605;48.296;16.416;2022-11-11T16:21:25;49.33;;;27.40;;
75926;SDS011;64605;48.296;16.416;2022-11-11T16:23:56;45.92;;;29.08;;
75926;SDS011;64605;48.296;16.416;2022-11-11T16:26:22;55.10;;;29.15;;
75926;SDS011;64605;48.296;16.416;2022-11-11T16:28:53;37.83;;;21.85;;
75926;SDS011;64605;48.296;16.416;2022-11-11T16:37:01;33.78;;;19.15;;
75926;SDS011;64605;48.296;16.416;2022-11-11T16:39:35;34.20;;;18.95;;
75926;SDS011;64605;48.296;16.416;2022-11-11T16:42:02;27.90;;;16.58;;
75926;SDS011;64605;48.296;16.416;2022-11-11T16:44:41;25.40;;;16.83;;
75926;SDS011;64605;48.296;16.416;2022-11-11T16:52:41;28.45;;;15.25;;
75926;SDS011;64605;48.296;16.416;2022-11-11T16:55:34;23.77;;;15.20;;
75926;SDS011;64605;48.296;16.416;2022-11-11T16:58:09;24.80;;;16.02;;
75926;SDS011;64605;48.296;16.416;2022-11-11T17:00:45;23.58;;;14.95;;
75926;SDS011;64605;48.296;16.416;2022-11-11T17:03:21;24.42;;;13.85;;
75926;SDS011;64605;48.296;16.416;2022-11-11T17:06:00;25.60;;;15.52;;
75926;SDS011;64605;48.296;16.416;2022-11-11T17:11:01;28.83;;;16.73;;
75926;SDS011;64605;48.296;16.416;2022-11-11T17:13:29;38.55;;;26.02;;
75926;SDS011;64605;48.296;16.416;2022-11-11T17:15:55;41.33;;;25.80;;
75926;SDS011;64605;48.296;16.416;2022-11-11T17:18:26;35.95;;;24.73;;
75926;SDS011;64605;48.296;16.416;2022-11-11T17:20:52;37.00;;;23.40;;
75926;SDS011;64605;48.296;16.416;2022-11-11T17:23:18;37.00;;;23.88;;
75926;SDS011;64605;48.296;16.416;2022-11-11T17:25:44;33.38;;;22.55;;
75926;SDS011;64605;48.296;16.416;2022-11-11T17:28:09;30.02;;;19.50;;
75926;SDS011;64605;48.296;16.416;2022-11-11T17:30:35;26.00;;;18.45;;
75926;SDS011;64605;48.296;16.416;2022-11-11T17:33:01;26.98;;;18.98;;